sensor_id;sensor_type;location;lat;lon;timestamp;pressure;altitude;pressure_sealevel;temperature;humidity
20394;BME280;10356;50.544;9.642;2023-07-13T00:01:26;98041.41;;;18.67;64.25
20394;BME280;10356;50.544;9.642;2023-07-13T00:03:52;98040.50;;;18.60;64.13
20394;BME280;10356;50.544;9.642;2023-07-13T00:06:19;98041.50;;;18.51;64.60
20394;BME280;10356;50.544;9.642;2023-07-13T00:08:47;98049.34;;;18.36;65.55
20394;BME280;10356;50.544;9.642;2023-07-13T00:11:15;98051.31;;;18.34;65.88
20394;BME280;10356;50.544;9.642;2023-07-13T00:13:43;98050.03;;;18.30;66.55
20394;BME280;10356;50.544;9.642;2023-07-13T00:16:11;98055.31;;;18.30;67.13
20394;BME280;10356;50.544;9.642;2023-07-13T00:18:39;98055.63;;;18.27;67.66
20394;BME280;10356;50.544;9.642;2023-07-13T00:21:06;98057.78;;;18.23;68.08
20394;BME280;10356;50.544;9.642;2023-07-13T00:23:33;98056.31;;;18.21;68.41
20394;BME280;10356;50.544;9.642;2023-07-13T00:26:01;98065.25;;;18.12;68.75
20394;BME280;10356;50.544;9.642;2023-07-13T00:28:28;98065.91;;;18.14;68.56
20394;BME280;10356;50.544;9.642;2023-07-13T00:30:55;98067.41;;;18.08;68.70
20394;BME280;10356;50.544;9.642;2023-07-13T00:33:22;98066.91;;;18.05;69.23
20394;BME280;10356;50.544;9.642;2023-07-13T00:35:49;98066.09;;;18.04;69.74
20394;BME280;10356;50.544;9.642;2023-07-13T00:38:16;98068.25;;;18.01;69.84
20394;BME280;10356;50.544;9.642;2023-07-13T00:40:42;98075.19;;;17.94;69.79
20394;BME280;10356;50.544;9.642;2023-07-13T00:43:13;98071.56;;;17.95;69.42
20394;BME280;10356;50.544;9.642;2023-07-13T00:46:10;98063.66;;;17.95;69.69
20394;BME280;10356;50.544;9.642;2023-07-13T00:48:37;98068.56;;;17.98;69.19
20394;BME280;10356;50.544;9.642;2023-07-13T00:51:04;98076.84;;;17.95;70.41
20394;BME280;10356;50.544;9.642;2023-07-13T00:53:32;98075.53;;;17.91;70.28
20394;BME280;10356;50.544;9.642;2023-07-13T00:56:00;98077.34;;;17.90;70.32
20394;BME280;10356;50.544;9.642;2023-07-13T00:58:28;98075.72;;;17.89;70.22
20394;BME280;10356;50.544;9.642;2023-07-13T01:00:55;98073.88;;;17.90;70.42
20394;BME280;10356;50.544;9.642;2023-07-13T01:03:22;98088.38;;;17.86;71.13
20394;BME280;10356;50.544;9.642;2023-07-13T01:05:49;98079.31;;;17.88;70.76
20394;BME280;10356;50.544;9.642;2023-07-13T01:08:16;98071.41;;;17.88;70.99
20394;BME280;10356;50.544;9.642;2023-07-13T01:10:51;98070.25;;;17.91;70.84
20394;BME280;10356;50.544;9.642;2023-07-13T01:13:17;98074.22;;;17.87;71.02
20394;BME280;10356;50.544;9.642;2023-07-13T01:15:47;98076.22;;;17.85;71.20
20394;BME280;10356;50.544;9.642;2023-07-13T01:18:16;98065.31;;;17.88;70.40
20394;BME280;10356;50.544;9.642;2023-07-13T01:20:51;98073.56;;;17.85;70.70
20394;BME280;10356;50.544;9.642;2023-07-13T01:23:18;98072.91;;;17.83;70.83
20394;BME280;10356;50.544;9.642;2023-07-13T01:25:45;98065.19;;;17.81;70.95
20394;BME280;10356;50.544;9.642;2023-07-13T01:28:11;98063.03;;;17.77;71.38
20394;BME280;10356;50.544;9.642;2023-07-13T01:30:39;98071.28;;;17.74;71.00
20394;BME280;10356;50.544;9.642;2023-07-13T01:33:06;98067.69;;;17.67;71.39
20394;BME280;10356;50.544;9.642;2023-07-13T01:35:33;98064.38;;;17.65;71.06
20394;BME280;10356;50.544;9.642;2023-07-13T01:38:01;98066.69;;;17.51;71.82
20394;BME280;10356;50.544;9.642;2023-07-13T01:40:28;98070.63;;;17.47;71.40
20394;BME280;10356;50.544;9.642;2023-07-13T01:42:55;98071.28;;;17.41;71.57
20394;BME280;10356;50.544;9.642;2023-07-13T01:45:22;98063.72;;;17.38;71.85
20394;BME280;10356;50.544;9.642;2023-07-13T01:47:49;98074.28;;;17.30;71.64
20394;BME280;10356;50.544;9.642;2023-07-13T01:50:16;98069.19;;;17.21;72.17
20394;BME280;10356;50.544;9.642;2023-07-13T01:52:42;98075.59;;;17.10;72.34
20394;BME280;10356;50.544;9.642;2023-07-13T01:55:10;98076.22;;;17.04;72.95
20394;BME280;10356;50.544;9.642;2023-07-13T01:57:36;98078.38;;;17.01;73.26
20394;BME280;10356;50.544;9.642;2023-07-13T02:00:06;98084.44;;;16.93;74.21
20394;BME280;10356;50.544;9.642;2023-07-13T02:02:33;98073.91;;;16.93;74.09
20394;BME280;10356;50.544;9.642;2023-07-13T02:04:59;98082.13;;;16.90;74.22
20394;BME280;10356;50.544;9.642;2023-07-13T02:07:26;98070.94;;;16.88;73.97
20394;BME280;10356;50.544;9.642;2023-07-13T02:09:52;98070.59;;;16.83;74.05
20394;BME280;10356;50.544;9.642;2023-07-13T02:12:20;98072.91;;;16.78;74.32
20394;BME280;10356;50.544;9.642;2023-07-13T02:14:46;98072.91;;;16.70;74.60
20394;BME280;10356;50.544;9.642;2023-07-13T02:17:13;98078.44;;;16.59;75.56
20394;BME280;10356;50.544;9.642;2023-07-13T02:19:39;98074.66;;;16.53;75.39
20394;BME280;10356;50.544;9.642;2023-07-13T02:22:06;98079.69;;;16.47;75.52
20394;BME280;10356;50.544;9.642;2023-07-13T02:24:32;98081.31;;;16.40;75.81
20394;BME280;10356;50.544;9.642;2023-07-13T02:26:59;98084.56;;;16.26;76.64
20394;BME280;10356;50.544;9.642;2023-07-13T02:29:27;98079.78;;;16.21;76.56
20394;BME280;10356;50.544;9.642;2023-07-13T02:31:53;98086.78;;;16.13;76.58
20394;BME280;10356;50.544;9.642;2023-07-13T02:34:20;98087.75;;;16.04;76.86
20394;BME280;10356;50.544;9.642;2023-07-13T02:36:46;98089.38;;;16.05;76.64
20394;BME280;10356;50.544;9.642;2023-07-13T02:39:13;98089.38;;;16.05;76.55
20394;BME280;10356;50.544;9.642;2023-07-13T02:41:40;98106.44;;;16.01;76.88
20394;BME280;10356;50.544;9.642;2023-07-13T02:44:06;98105.81;;;16.07;76.90
20394;BME280;10356;50.544;9.642;2023-07-13T02:46:36;98100.41;;;16.08;77.38
20394;BME280;10356;50.544;9.642;2023-07-13T02:49:04;98108.31;;;16.16;77.08
20394;BME280;10356;50.544;9.642;2023-07-13T02:51:30;98112.25;;;16.12;77.59
20394;BME280;10356;50.544;9.642;2023-07-13T02:53:59;98109.53;;;16.22;77.22
20394;BME280;10356;50.544;9.642;2023-07-13T02:56:27;98118.56;;;16.27;77.52
20394;BME280;10356;50.544;9.642;2023-07-13T02:58:54;98114.16;;;16.28;77.99
20394;BME280;10356;50.544;9.642;2023-07-13T03:01:21;98123.19;;;16.33;77.72
20394;BME280;10356;50.544;9.642;2023-07-13T03:03:50;98121.56;;;16.40;77.09
20394;BME280;10356;50.544;9.642;2023-07-13T03:06:18;98123.41;;;16.40;77.52
20394;BME280;10356;50.544;9.642;2023-07-13T03:08:47;98128.34;;;16.43;77.14
20394;BME280;10356;50.544;9.642;2023-07-13T03:11:16;98130.28;;;16.41;77.95
20394;BME280;10356;50.544;9.642;2023-07-13T03:13:43;98129.34;;;16.42;77.57
20394;BME280;10356;50.544;9.642;2023-07-13T03:16:10;98130.75;;;16.36;77.20
20394;BME280;10356;50.544;9.642;2023-07-13T03:18:37;98139.09;;;16.24;77.82
20394;BME280;10356;50.544;9.642;2023-07-13T03:21:06;98141.09;;;16.30;77.60
20394;BME280;10356;50.544;9.642;2023-07-13T03:23:32;98145.34;;;16.23;78.26
20394;BME280;10356;50.544;9.642;2023-07-13T03:26:05;98138.56;;;16.20;78.18
20394;BME280;10356;50.544;9.642;2023-07-13T03:28:32;98139.41;;;16.21;77.78
20394;BME280;10356;50.544;9.642;2023-07-13T03:31:02;98145.00;;;16.18;76.89
20394;BME280;10356;50.544;9.642;2023-07-13T03:33:29;98145.44;;;16.13;77.75
20394;BME280;10356;50.544;9.642;2023-07-13T03:35:56;98149.91;;;16.21;77.48
20394;BME280;10356;50.544;9.642;2023-07-13T03:38:24;98146.00;;;16.25;76.67
20394;BME280;10356;50.544;9.642;2023-07-13T03:40:51;98150.59;;;16.23;77.74
20394;BME280;10356;50.544;9.642;2023-07-13T03:43:18;98151.25;;;16.25;77.45
20394;BME280;10356;50.544;9.642;2023-07-13T03:45:45;98152.88;;;16.18;77.64
20394;BME280;10356;50.544;9.642;2023-07-13T03:48:12;98162.41;;;16.19;77.67
20394;BME280;10356;50.544;9.642;2023-07-13T03:50:39;98157.75;;;16.13;77.74
20394;BME280;10356;50.544;9.642;2023-07-13T03:53:05;98157.75;;;16.13;77.31
20394;BME280;10356;50.544;9.642;2023-07-13T03:55:33;98163.13;;;16.03;77.40
20394;BME280;10356;50.544;9.642;2023-07-13T04:00:47;98172.34;;;16.07;76.66
20394;BME280;10356;50.544;9.642;2023-07-13T04:03:13;98176.53;;;16.18;75.78
20394;BME280;10356;50.544;9.642;2023-07-13T04:05:40;98178.25;;;16.35;75.03
20394;BME280;10356;50.544;9.642;2023-07-13T04:08:06;98175.16;;;16.65;74.50
20394;BME280;10356;50.544;9.642;2023-07-13T04:10:34;98171.78;;;16.81;72.92
20394;BME280;10356;50.544;9.642;2023-07-13T04:13:01;98179.84;;;16.87;71.71
20394;BME280;10356;50.544;9.642;2023-07-13T04:15:29;98182.56;;;17.27;69.40
20394;BME280;10356;50.544;9.642;2023-07-13T04:17:56;98170.41;;;18.07;65.49
20394;BME280;10356;50.544;9.642;2023-07-13T04:20:24;98177.13;;;18.88;62.86
20394;BME280;10356;50.544;9.642;2023-07-13T04:22:51;98180.16;;;19.61;60.11
20394;BME280;10356;50.544;9.642;2023-07-13T04:25:18;98183.03;;;20.26;56.03
20394;BME280;10356;50.544;9.642;2023-07-13T04:27:46;98180.03;;;20.58;53.75
20394;BME280;10356;50.544;9.642;2023-07-13T04:30:13;98187.00;;;20.59;54.35
20394;BME280;10356;50.544;9.642;2023-07-13T04:32:39;98186.25;;;20.95;53.39
20394;BME280;10356;50.544;9.642;2023-07-13T04:35:06;98184.72;;;21.57;52.43
20394;BME280;10356;50.544;9.642;2023-07-13T04:37:33;98184.44;;;21.94;49.76
20394;BME280;10356;50.544;9.642;2023-07-13T04:40:00;98191.13;;;21.48;49.20
20394;BME280;10356;50.544;9.642;2023-07-13T04:42:27;98194.00;;;21.11;50.74
20394;BME280;10356;50.544;9.642;2023-07-13T04:44:55;98191.13;;;20.76;51.13
20394;BME280;10356;50.544;9.642;2023-07-13T04:47:21;98190.41;;;20.16;52.47
20394;BME280;10356;50.544;9.642;2023-07-13T04:49:48;98200.94;;;19.87;54.58
20394;BME280;10356;50.544;9.642;2023-07-13T04:52:14;98200.00;;;19.57;56.42
20394;BME280;10356;50.544;9.642;2023-07-13T04:54:41;98203.09;;;19.07;59.61
20394;BME280;10356;50.544;9.642;2023-07-13T04:57:07;98199.88;;;18.89;59.99
20394;BME280;10356;50.544;9.642;2023-07-13T04:59:34;98203.44;;;18.66;61.20
20394;BME280;10356;50.544;9.642;2023-07-13T05:02:02;98207.47;;;18.46;61.53
20394;BME280;10356;50.544;9.642;2023-07-13T05:04:28;98207.63;;;18.36;62.61
20394;BME280;10356;50.544;9.642;2023-07-13T05:06:55;98199.41;;;18.15;63.25
20394;BME280;10356;50.544;9.642;2023-07-13T05:09:21;98211.94;;;18.21;63.19
20394;BME280;10356;50.544;9.642;2023-07-13T05:11:48;98214.91;;;18.18;63.78
20394;BME280;10356;50.544;9.642;2023-07-13T05:14:14;98215.56;;;18.20;63.01
20394;BME280;10356;50.544;9.642;2023-07-13T05:16:41;98212.44;;;18.16;62.58
20394;BME280;10356;50.544;9.642;2023-07-13T05:19:09;98208.66;;;18.11;63.38
20394;BME280;10356;50.544;9.642;2023-07-13T05:21:36;98215.59;;;18.04;62.65
20394;BME280;10356;50.544;9.642;2023-07-13T05:24:03;98205.34;;;18.17;61.71
20394;BME280;10356;50.544;9.642;2023-07-13T05:26:29;98209.28;;;18.21;61.18
20394;BME280;10356;50.544;9.642;2023-07-13T05:28:56;98207.47;;;18.29;60.10
20394;BME280;10356;50.544;9.642;2023-07-13T05:31:22;98211.41;;;18.33;60.20
20394;BME280;10356;50.544;9.642;2023-07-13T05:33:49;98220.47;;;18.39;59.19
20394;BME280;10356;50.544;9.642;2023-07-13T05:36:17;98211.59;;;18.48;59.25
20394;BME280;10356;50.544;9.642;2023-07-13T05:38:43;98215.63;;;18.67;58.45
20394;BME280;10356;50.544;9.642;2023-07-13T05:41:10;98210.19;;;18.76;55.50
20394;BME280;10356;50.544;9.642;2023-07-13T05:43:36;98202.22;;;18.84;54.01
20394;BME280;10356;50.544;9.642;2023-07-13T05:46:03;98212.06;;;18.98;54.10
20394;BME280;10356;50.544;9.642;2023-07-13T05:48:29;98212.72;;;19.00;52.75
20394;BME280;10356;50.544;9.642;2023-07-13T05:50:56;98214.47;;;19.08;53.48
20394;BME280;10356;50.544;9.642;2023-07-13T05:53:24;98217.31;;;19.29;51.72
20394;BME280;10356;50.544;9.642;2023-07-13T05:55:50;98219.97;;;19.37;52.08
20394;BME280;10356;50.544;9.642;2023-07-13T05:58:18;98221.75;;;19.45;51.26
20394;BME280;10356;50.544;9.642;2023-07-13T06:00:45;98219.03;;;19.53;51.26
20394;BME280;10356;50.544;9.642;2023-07-13T06:03:11;98226.66;;;19.48;51.18
20394;BME280;10356;50.544;9.642;2023-07-13T06:05:38;98220.66;;;19.54;50.40
20394;BME280;10356;50.544;9.642;2023-07-13T06:08:06;98229.78;;;19.74;50.80
20394;BME280;10356;50.544;9.642;2023-07-13T06:10:35;98229.25;;;20.01;49.66
20394;BME280;10356;50.544;9.642;2023-07-13T06:13:02;98228.44;;;20.15;49.42
20394;BME280;10356;50.544;9.642;2023-07-13T06:15:28;98227.31;;;20.32;48.49
20394;BME280;10356;50.544;9.642;2023-07-13T06:17:55;98239.28;;;20.43;48.78
20394;BME280;10356;50.544;9.642;2023-07-13T06:20:21;98227.91;;;20.57;47.48
20394;BME280;10356;50.544;9.642;2023-07-13T06:22:48;98232.38;;;20.71;48.11
20394;BME280;10356;50.544;9.642;2023-07-13T06:25:14;98240.84;;;20.96;47.12
20394;BME280;10356;50.544;9.642;2023-07-13T06:27:42;98243.63;;;21.17;46.69
20394;BME280;10356;50.544;9.642;2023-07-13T06:30:10;98241.00;;;21.38;46.52
20394;BME280;10356;50.544;9.642;2023-07-13T06:32:36;98236.22;;;21.48;45.74
20394;BME280;10356;50.544;9.642;2023-07-13T06:35:04;98233.47;;;21.98;45.51
20394;BME280;10356;50.544;9.642;2023-07-13T06:37:30;98233.34;;;22.06;44.70
20394;BME280;10356;50.544;9.642;2023-07-13T06:39:57;98239.84;;;22.25;44.03
20394;BME280;10356;50.544;9.642;2023-07-13T06:42:23;98241.47;;;22.53;43.23
20394;BME280;10356;50.544;9.642;2023-07-13T06:44:51;98240.09;;;22.30;43.48
20394;BME280;10356;50.544;9.642;2023-07-13T06:47:17;98242.59;;;22.66;43.15
20394;BME280;10356;50.544;9.642;2023-07-13T06:49:44;98247.09;;;22.65;43.02
20394;BME280;10356;50.544;9.642;2023-07-13T06:52:10;98240.00;;;22.79;42.82
20394;BME280;10356;50.544;9.642;2023-07-13T06:54:37;98246.53;;;23.10;42.59
20394;BME280;10356;50.544;9.642;2023-07-13T06:57:04;98244.13;;;23.22;41.24
20394;BME280;10356;50.544;9.642;2023-07-13T06:59:30;98250.81;;;23.52;41.56
20394;BME280;10356;50.544;9.642;2023-07-13T07:01:58;98246.75;;;23.63;40.34
20394;BME280;10356;50.544;9.642;2023-07-13T07:04:25;98243.69;;;23.72;41.80
20394;BME280;10356;50.544;9.642;2023-07-13T07:06:52;98252.84;;;23.50;40.02
20394;BME280;10356;50.544;9.642;2023-07-13T07:09:18;98251.19;;;23.43;40.29
20394;BME280;10356;50.544;9.642;2023-07-13T07:11:45;98252.47;;;23.53;39.99
20394;BME280;10356;50.544;9.642;2023-07-13T07:14:11;98248.19;;;23.65;40.07
20394;BME280;10356;50.544;9.642;2023-07-13T07:16:38;98251.03;;;23.57;40.48
20394;BME280;10356;50.544;9.642;2023-07-13T07:19:05;98253.91;;;23.62;39.58
20394;BME280;10356;50.544;9.642;2023-07-13T07:21:32;98251.06;;;23.70;39.70
20394;BME280;10356;50.544;9.642;2023-07-13T07:23:58;98257.47;;;24.28;38.61
20394;BME280;10356;50.544;9.642;2023-07-13T07:26:25;98250.53;;;24.07;38.94
20394;BME280;10356;50.544;9.642;2023-07-13T07:28:52;98250.53;;;24.07;39.00
20394;BME280;10356;50.544;9.642;2023-07-13T07:31:18;98261.19;;;24.34;39.56
20394;BME280;10356;50.544;9.642;2023-07-13T07:33:45;98251.97;;;24.23;38.39
20394;BME280;10356;50.544;9.642;2023-07-13T07:36:13;98258.28;;;24.81;38.08
20394;BME280;10356;50.544;9.642;2023-07-13T07:38:39;98255.38;;;24.95;37.55
20394;BME280;10356;50.544;9.642;2023-07-13T07:41:06;98260.09;;;24.87;38.16
20394;BME280;10356;50.544;9.642;2023-07-13T07:43:32;98252.94;;;24.94;38.05
20394;BME280;10356;50.544;9.642;2023-07-13T07:45:59;98256.16;;;25.09;37.25
20394;BME280;10356;50.544;9.642;2023-07-13T07:48:25;98255.34;;;25.09;37.71
20394;BME280;10356;50.544;9.642;2023-07-13T07:50:52;98260.84;;;25.20;37.64
20394;BME280;10356;50.544;9.642;2023-07-13T07:53:19;98261.03;;;25.69;37.32
20394;BME280;10356;50.544;9.642;2023-07-13T07:55:46;98251.91;;;25.39;36.90
20394;BME280;10356;50.544;9.642;2023-07-13T07:58:13;98263.63;;;25.38;37.75
20394;BME280;10356;50.544;9.642;2023-07-13T08:00:39;98260.41;;;25.67;36.66
20394;BME280;10356;50.544;9.642;2023-07-13T08:03:06;98260.31;;;25.49;36.73
20394;BME280;10356;50.544;9.642;2023-07-13T08:05:34;98263.03;;;25.36;36.75
20394;BME280;10356;50.544;9.642;2023-07-13T08:08:01;98262.47;;;25.72;36.57
20394;BME280;10356;50.544;9.642;2023-07-13T08:10:29;98269.16;;;25.88;36.94
20394;BME280;10356;50.544;9.642;2023-07-13T08:12:56;98280.09;;;25.79;35.78
20394;BME280;10356;50.544;9.642;2023-07-13T08:15:22;98265.53;;;25.25;35.91
20394;BME280;10356;50.544;9.642;2023-07-13T08:17:49;98270.44;;;25.34;37.57
20394;BME280;10356;50.544;9.642;2023-07-13T08:20:15;98270.69;;;25.13;38.97
20394;BME280;10356;50.544;9.642;2023-07-13T08:22:42;98275.47;;;24.98;37.10
20394;BME280;10356;50.544;9.642;2023-07-13T08:25:09;98269.63;;;25.27;37.13
20394;BME280;10356;50.544;9.642;2023-07-13T08:27:37;98262.94;;;25.62;36.02
20394;BME280;10356;50.544;9.642;2023-07-13T08:30:04;98269.59;;;25.40;36.02
20394;BME280;10356;50.544;9.642;2023-07-13T08:32:33;98272.50;;;25.76;35.65
20394;BME280;10356;50.544;9.642;2023-07-13T08:34:59;98258.25;;;25.51;35.28
20394;BME280;10356;50.544;9.642;2023-07-13T08:37:26;98264.47;;;25.83;34.89
20394;BME280;10356;50.544;9.642;2023-07-13T08:39:52;98272.59;;;25.95;34.83
20394;BME280;10356;50.544;9.642;2023-07-13T08:42:29;98270.63;;;25.84;34.88
20394;BME280;10356;50.544;9.642;2023-07-13T08:45:05;98276.03;;;25.70;34.57
20394;BME280;10356;50.544;9.642;2023-07-13T08:47:35;98260.53;;;25.86;34.91
20394;BME280;10356;50.544;9.642;2023-07-13T08:50:05;98258.94;;;26.16;34.89
20394;BME280;10356;50.544;9.642;2023-07-13T08:52:35;98261.41;;;26.60;34.49
20394;BME280;10356;50.544;9.642;2023-07-13T08:55:09;98252.97;;;26.14;35.00
20394;BME280;10356;50.544;9.642;2023-07-13T08:57:39;98258.53;;;26.37;34.10
20394;BME280;10356;50.544;9.642;2023-07-13T09:00:11;98259.78;;;26.34;34.78
20394;BME280;10356;50.544;9.642;2023-07-13T09:02:42;98258.44;;;26.50;34.01
20394;BME280;10356;50.544;9.642;2023-07-13T09:05:15;98254.69;;;26.51;33.73
20394;BME280;10356;50.544;9.642;2023-07-13T09:08:01;98254.41;;;26.59;33.46
20394;BME280;10356;50.544;9.642;2023-07-13T09:10:41;98254.88;;;26.56;33.82
20394;BME280;10356;50.544;9.642;2023-07-13T09:13:19;98260.44;;;26.79;33.87
20394;BME280;10356;50.544;9.642;2023-07-13T09:15:51;98250.31;;;26.81;34.08
20394;BME280;10356;50.544;9.642;2023-07-13T09:18:23;98264.81;;;26.92;33.73
20394;BME280;10356;50.544;9.642;2023-07-13T09:20:54;98259.25;;;27.11;33.66
20394;BME280;10356;50.544;9.642;2023-07-13T09:23:23;98251.44;;;27.10;32.80
20394;BME280;10356;50.544;9.642;2023-07-13T09:25:53;98257.75;;;26.54;33.59
20394;BME280;10356;50.544;9.642;2023-07-13T09:28:23;98262.19;;;26.18;34.21
20394;BME280;10356;50.544;9.642;2023-07-13T09:31:01;98245.94;;;26.44;34.08
20394;BME280;10356;50.544;9.642;2023-07-13T09:33:29;98252.16;;;26.81;33.61
20394;BME280;10356;50.544;9.642;2023-07-13T09:35:56;98255.44;;;26.83;32.84
20394;BME280;10356;50.544;9.642;2023-07-13T09:38:25;98261.34;;;26.67;33.05
20394;BME280;10356;50.544;9.642;2023-07-13T09:41:01;98265.47;;;26.20;33.72
20394;BME280;10356;50.544;9.642;2023-07-13T09:43:34;98262.63;;;26.15;33.72
20394;BME280;10356;50.544;9.642;2023-07-13T09:46:02;98262.88;;;25.75;34.48
20394;BME280;10356;50.544;9.642;2023-07-13T09:48:34;98264.06;;;25.79;34.32
20394;BME280;10356;50.544;9.642;2023-07-13T09:51:09;98275.97;;;25.84;34.42
20394;BME280;10356;50.544;9.642;2023-07-13T09:53:41;98275.13;;;25.83;34.59
20394;BME280;10356;50.544;9.642;2023-07-13T09:56:19;98274.41;;;26.32;34.18
20394;BME280;10356;50.544;9.642;2023-07-13T09:58:45;98265.03;;;26.23;34.30
20394;BME280;10356;50.544;9.642;2023-07-13T10:01:13;98261.91;;;26.50;34.18
20394;BME280;10356;50.544;9.642;2023-07-13T10:03:52;98265.47;;;26.62;32.93
20394;BME280;10356;50.544;9.642;2023-07-13T10:06:20;98271.03;;;26.43;33.46
20394;BME280;10356;50.544;9.642;2023-07-13T10:08:49;98268.66;;;26.28;33.48
20394;BME280;10356;50.544;9.642;2023-07-13T10:11:18;98270.59;;;26.46;32.70
20394;BME280;10356;50.544;9.642;2023-07-13T10:13:50;98271.38;;;26.46;32.76
20394;BME280;10356;50.544;9.642;2023-07-13T10:16:19;98272.03;;;26.67;33.71
20394;BME280;10356;50.544;9.642;2023-07-13T10:18:48;98269.72;;;26.95;32.51
20394;BME280;10356;50.544;9.642;2023-07-13T10:21:17;98277.38;;;27.27;32.93
20394;BME280;10356;50.544;9.642;2023-07-13T10:23:48;98273.22;;;27.31;32.45
20394;BME280;10356;50.544;9.642;2023-07-13T10:26:21;98270.53;;;27.31;32.46
20394;BME280;10356;50.544;9.642;2023-07-13T10:28:51;98274.59;;;27.40;32.54
20394;BME280;10356;50.544;9.642;2023-07-13T10:31:22;98276.19;;;27.41;31.57
20394;BME280;10356;50.544;9.642;2023-07-13T10:33:49;98266.78;;;27.69;31.21
20394;BME280;10356;50.544;9.642;2023-07-13T10:36:22;98267.66;;;28.22;30.70
20394;BME280;10356;50.544;9.642;2023-07-13T10:38:53;98275.78;;;28.04;30.75
20394;BME280;10356;50.544;9.642;2023-07-13T10:41:22;98259.22;;;28.71;30.82
20394;BME280;10356;50.544;9.642;2023-07-13T10:43:52;98264.00;;;28.69;29.86
20394;BME280;10356;50.544;9.642;2023-07-13T10:46:22;98261.59;;;28.56;29.54
20394;BME280;10356;50.544;9.642;2023-07-13T10:48:54;98264.06;;;27.87;30.37
20394;BME280;10356;50.544;9.642;2023-07-13T10:51:22;98264.50;;;27.84;30.06
20394;BME280;10356;50.544;9.642;2023-07-13T10:54:12;98269.41;;;27.87;30.25
20394;BME280;10356;50.544;9.642;2023-07-13T10:56:42;98267.25;;;28.48;29.84
20394;BME280;10356;50.544;9.642;2023-07-13T10:59:12;98263.16;;;28.46;29.46
20394;BME280;10356;50.544;9.642;2023-07-13T11:01:50;98258.81;;;28.21;28.75
20394;BME280;10356;50.544;9.642;2023-07-13T11:04:18;98259.59;;;27.99;30.11
20394;BME280;10356;50.544;9.642;2023-07-13T11:06:48;98267.91;;;28.32;28.40
20394;BME280;10356;50.544;9.642;2023-07-13T11:09:31;98252.63;;;27.80;27.37
20394;BME280;10356;50.544;9.642;2023-07-13T11:11:59;98251.69;;;27.86;27.84
20394;BME280;10356;50.544;9.642;2023-07-13T11:14:30;98259.78;;;27.68;28.15
20394;BME280;10356;50.544;9.642;2023-07-13T11:16:58;98249.50;;;27.53;28.28
20394;BME280;10356;50.544;9.642;2023-07-13T11:19:28;98250.19;;;27.49;28.77
20394;BME280;10356;50.544;9.642;2023-07-13T11:22:12;98260.84;;;27.37;28.93
20394;BME280;10356;50.544;9.642;2023-07-13T11:25:00;98256.13;;;27.32;28.75
20394;BME280;10356;50.544;9.642;2023-07-13T11:27:39;98266.09;;;27.07;29.41
20394;BME280;10356;50.544;9.642;2023-07-13T11:30:08;98272.25;;;27.26;28.85
20394;BME280;10356;50.544;9.642;2023-07-13T11:32:37;98270.34;;;27.15;29.23
20394;BME280;10356;50.544;9.642;2023-07-13T11:35:04;98265.66;;;27.47;28.75
20394;BME280;10356;50.544;9.642;2023-07-13T11:37:30;98259.47;;;27.76;29.37
20394;BME280;10356;50.544;9.642;2023-07-13T11:39:58;98262.56;;;27.91;28.27
20394;BME280;10356;50.544;9.642;2023-07-13T11:42:25;98267.63;;;27.99;28.21
20394;BME280;10356;50.544;9.642;2023-07-13T11:44:52;98263.09;;;27.99;28.72
20394;BME280;10356;50.544;9.642;2023-07-13T11:47:22;98263.97;;;27.64;28.98
20394;BME280;10356;50.544;9.642;2023-07-13T11:49:55;98257.16;;;26.77;29.41
20394;BME280;10356;50.544;9.642;2023-07-13T11:52:24;98258.88;;;26.90;29.98
20394;BME280;10356;50.544;9.642;2023-07-13T11:54:55;98261.91;;;26.93;29.82
20394;BME280;10356;50.544;9.642;2023-07-13T11:57:25;98256.28;;;27.19;29.87
20394;BME280;10356;50.544;9.642;2023-07-13T11:59:54;98257.63;;;26.92;29.35
20394;BME280;10356;50.544;9.642;2023-07-13T12:02:28;98259.78;;;26.59;30.04
20394;BME280;10356;50.544;9.642;2023-07-13T12:04:57;98262.34;;;26.23;30.95
20394;BME280;10356;50.544;9.642;2023-07-13T12:07:28;98264.31;;;26.09;31.43
20394;BME280;10356;50.544;9.642;2023-07-13T12:10:00;98258.75;;;26.11;31.59
20394;BME280;10356;50.544;9.642;2023-07-13T12:12:28;98258.84;;;26.22;31.36
20394;BME280;10356;50.544;9.642;2023-07-13T12:14:55;98262.19;;;26.18;31.55
20394;BME280;10356;50.544;9.642;2023-07-13T12:17:24;98255.16;;;26.23;31.28
20394;BME280;10356;50.544;9.642;2023-07-13T12:19:52;98270.59;;;26.46;31.25
20394;BME280;10356;50.544;9.642;2023-07-13T12:22:20;98260.47;;;26.30;31.42
20394;BME280;10356;50.544;9.642;2023-07-13T12:24:48;98258.94;;;26.58;31.55
20394;BME280;10356;50.544;9.642;2023-07-13T12:27:19;98264.47;;;26.39;31.49
20394;BME280;10356;50.544;9.642;2023-07-13T12:29:52;98248.09;;;26.78;31.48
20394;BME280;10356;50.544;9.642;2023-07-13T12:32:20;98263.31;;;27.80;31.23
20394;BME280;10356;50.544;9.642;2023-07-13T12:34:52;98252.50;;;27.75;29.74
20394;BME280;10356;50.544;9.642;2023-07-13T12:37:20;98263.13;;;27.33;30.36
20394;BME280;10356;50.544;9.642;2023-07-13T12:39:48;98264.47;;;26.88;31.17
20394;BME280;10356;50.544;9.642;2023-07-13T12:42:20;98260.97;;;27.06;30.71
20394;BME280;10356;50.544;9.642;2023-07-13T12:44:49;98264.59;;;26.75;31.59
20394;BME280;10356;50.544;9.642;2023-07-13T12:47:16;98261.91;;;26.93;31.22
20394;BME280;10356;50.544;9.642;2023-07-13T12:49:48;98263.41;;;26.89;31.51
20394;BME280;10356;50.544;9.642;2023-07-13T12:52:21;98271.28;;;26.59;31.93
20394;BME280;10356;50.544;9.642;2023-07-13T12:54:55;98282.63;;;26.30;32.70
20394;BME280;10356;50.544;9.642;2023-07-13T12:57:23;98285.28;;;26.06;32.37
20394;BME280;10356;50.544;9.642;2023-07-13T12:59:52;98280.63;;;25.88;32.65
20394;BME280;10356;50.544;9.642;2023-07-13T13:02:26;98279.28;;;25.79;32.79
20394;BME280;10356;50.544;9.642;2023-07-13T13:04:54;98283.00;;;25.71;33.40
20394;BME280;10356;50.544;9.642;2023-07-13T13:07:21;98273.56;;;25.69;33.19
20394;BME280;10356;50.544;9.642;2023-07-13T13:09:48;98281.22;;;25.97;33.01